createdAt,value
2018-02-20T00:01:14.856Z,26.63
2018-02-20T00:04:16.248Z,27.50
2018-02-20T00:07:17.595Z,24.73
2018-02-20T00:10:18.992Z,23.60
2018-02-20T00:13:20.353Z,26.43
2018-02-20T00:16:21.686Z,26.27
2018-02-20T00:19:23.078Z,25.40
2018-02-20T00:22:24.452Z,27.17
2018-02-20T00:25:25.782Z,26.47
2018-02-20T00:28:27.149Z,26.83
2018-02-20T00:31:29.712Z,27.37
2018-02-20T00:34:31.181Z,27.10
2018-02-20T00:37:32.500Z,26.00
2018-02-20T00:40:33.921Z,25.27
2018-02-20T00:43:35.262Z,27.20
2018-02-20T00:46:36.881Z,28.63
2018-02-20T00:49:38.664Z,25.90
2018-02-20T00:52:40.358Z,27.07
2018-02-20T00:55:42.242Z,26.83
2018-02-20T00:58:44.074Z,25.53
2018-02-20T01:01:45.419Z,27.10
2018-02-20T01:04:47.779Z,29.40
2018-02-20T01:07:50.960Z,27.10
2018-02-20T01:10:52.416Z,26.57
2018-02-20T01:13:53.912Z,28.60
2018-02-20T01:16:56.299Z,28.10
2018-02-20T01:19:57.959Z,28.40
2018-02-20T01:22:59.326Z,28.17
2018-02-20T01:26:00.773Z,27.90
2018-02-20T01:29:02.835Z,26.90
2018-02-20T01:32:04.166Z,28.20
2018-02-20T01:35:05.519Z,27.70
2018-02-20T01:38:07.720Z,28.13
2018-02-20T01:41:09.807Z,28.20
2018-02-20T01:44:11.216Z,27.23
2018-02-20T01:47:12.538Z,27.00
2018-02-20T01:50:13.925Z,28.20
2018-02-20T01:53:15.267Z,27.17
2018-02-20T01:56:16.635Z,26.70
2018-02-20T01:59:18.001Z,27.53
2018-02-20T02:02:20.138Z,30.83
2018-02-20T02:05:21.495Z,29.60
2018-02-20T02:08:22.899Z,28.37
2018-02-20T02:11:24.244Z,28.37
2018-02-20T02:14:26.346Z,28.33
2018-02-20T02:17:28.420Z,28.60
2018-02-20T02:20:29.787Z,30.60
2018-02-20T02:23:31.116Z,28.70
2018-02-20T02:26:32.463Z,30.00
2018-02-20T02:29:33.854Z,28.40
2018-02-20T02:32:35.251Z,30.43
2018-02-20T02:35:37.370Z,30.00
2018-02-20T02:38:38.815Z,29.77
2018-02-20T02:41:40.209Z,30.63
2018-02-20T02:44:42.286Z,29.97
2018-02-20T02:47:43.645Z,26.97
2018-02-20T02:50:44.989Z,27.43
2018-02-20T02:53:46.352Z,29.13
2018-02-20T02:56:47.696Z,28.80
2018-02-20T02:59:49.057Z,28.77
2018-02-20T03:02:50.398Z,31.13
2018-02-20T03:05:51.744Z,27.53
2018-02-20T03:08:53.162Z,27.10
2018-02-20T03:11:55.280Z,29.70
2018-02-20T03:14:56.636Z,28.70
2018-02-20T03:17:57.977Z,27.07
2018-02-20T03:20:59.342Z,26.73
2018-02-20T03:24:00.669Z,26.00
2018-02-20T03:27:02.790Z,28.13
2018-02-20T03:30:04.192Z,26.60
2018-02-20T03:33:05.568Z,27.80
2018-02-20T03:36:06.935Z,30.17
2018-02-20T03:39:08.285Z,29.77
2018-02-20T03:42:09.625Z,26.77
2018-02-20T03:45:11.052Z,28.67
2018-02-20T03:48:13.175Z,28.57
2018-02-20T03:51:14.540Z,28.40
2018-02-20T03:54:16.595Z,25.60
2018-02-20T03:57:17.988Z,29.57
2018-02-20T04:00:19.338Z,26.77
2018-02-20T04:03:20.714Z,27.00
2018-02-20T04:06:22.057Z,28.47
2018-02-20T04:09:24.153Z,27.53
2018-02-20T04:12:26.250Z,28.63
2018-02-20T04:15:28.362Z,29.80
2018-02-20T04:18:29.734Z,28.33
2018-02-20T04:21:31.869Z,26.77
2018-02-20T04:24:33.211Z,28.40
2018-02-20T04:27:35.351Z,29.37
2018-02-20T04:30:36.691Z,27.83
2018-02-20T04:33:38.812Z,30.23
2018-02-20T04:36:40.114Z,29.13
2018-02-20T04:39:41.489Z,30.00
2018-02-20T04:42:42.792Z,28.27
2018-02-20T04:45:44.131Z,31.57
2018-02-20T04:48:45.487Z,29.50
2018-02-20T04:51:47.595Z,30.70
2018-02-20T04:54:49.715Z,29.00
2018-02-20T04:57:51.053Z,30.10
2018-02-20T05:00:53.162Z,27.77
2018-02-20T05:03:55.240Z,28.47
2018-02-20T05:06:56.590Z,28.43
2018-02-20T05:09:57.939Z,28.77
2018-02-20T05:12:59.266Z,29.60
2018-02-20T05:16:00.603Z,28.97
2018-02-20T05:19:01.993Z,26.83
2018-02-20T05:22:03.343Z,26.90
2018-02-20T05:25:04.726Z,28.13
2018-02-20T05:28:06.135Z,29.63
2018-02-20T05:31:07.490Z,29.63
2018-02-20T05:34:09.614Z,28.70
2018-02-20T05:37:10.954Z,29.67
2018-02-20T05:40:12.300Z,28.90
2018-02-20T05:43:13.634Z,29.20
2018-02-20T05:46:15.750Z,28.07
2018-02-20T05:49:17.111Z,26.73
2018-02-20T05:52:19.216Z,28.00
2018-02-20T05:55:21.284Z,26.53
2018-02-20T05:58:22.632Z,27.00
2018-02-20T06:01:23.998Z,26.40
2018-02-20T06:04:25.374Z,28.70
2018-02-20T06:07:26.730Z,29.57
2018-02-20T06:10:28.810Z,29.47
2018-02-20T06:13:30.217Z,26.67
2018-02-20T06:16:32.312Z,28.83
2018-02-20T06:19:34.423Z,29.53
2018-02-20T06:22:35.799Z,27.33
2018-02-20T06:25:37.854Z,27.20
2018-02-20T06:28:39.262Z,28.63
2018-02-20T06:31:41.351Z,29.33
2018-02-20T06:34:42.755Z,27.20
2018-02-20T06:37:44.118Z,28.07
2018-02-20T06:40:45.514Z,27.80
2018-02-20T06:43:47.579Z,28.17
2018-02-20T06:46:48.964Z,28.47
2018-02-20T06:49:50.299Z,30.00
2018-02-20T06:52:51.701Z,30.33
2018-02-20T06:55:53.049Z,27.70
2018-02-20T06:58:54.409Z,28.60
2018-02-20T07:01:56.545Z,28.83
2018-02-20T07:04:57.902Z,28.53
2018-02-20T07:07:59.257Z,28.93
2018-02-20T07:11:00.634Z,29.60
2018-02-20T07:14:02.001Z,30.47
2018-02-20T07:17:03.370Z,29.03
2018-02-20T07:20:04.709Z,29.50
2018-02-20T07:23:06.051Z,30.87
2018-02-20T07:26:07.437Z,33.20
2018-02-20T07:29:08.740Z,30.83
2018-02-20T07:32:10.830Z,27.43
2018-02-20T07:35:12.874Z,29.20
2018-02-20T07:38:14.156Z,28.90
2018-02-20T07:41:15.484Z,28.87
2018-02-20T07:44:17.591Z,30.30
2018-02-20T07:47:19.704Z,28.03
2018-02-20T07:50:21.036Z,29.93
2018-02-20T07:53:22.386Z,29.70
2018-02-20T07:56:23.709Z,30.47
2018-02-20T07:59:25.419Z,28.60
2018-02-20T08:02:27.523Z,29.60
2018-02-20T08:05:28.928Z,29.57
2018-02-20T08:08:30.212Z,29.37
2018-02-20T08:11:31.539Z,28.80
2018-02-20T08:14:32.881Z,29.73
2018-02-20T08:17:34.244Z,31.33
2018-02-20T08:20:35.594Z,31.67
2018-02-20T08:23:37.651Z,33.27
2018-02-20T08:26:38.955Z,30.70
2018-02-20T08:29:40.287Z,30.70
2018-02-20T08:32:41.618Z,31.20
2018-02-20T08:35:42.928Z,32.00
2018-02-20T08:38:44.246Z,29.53
2018-02-20T08:41:45.572Z,31.53
2018-02-20T08:44:47.643Z,29.63
2018-02-20T08:47:48.956Z,32.40
2018-02-20T08:50:50.280Z,32.30
2018-02-20T08:53:51.571Z,29.10
2018-02-20T08:56:52.887Z,30.93
2018-02-20T08:59:54.957Z,31.33
2018-02-20T09:02:56.241Z,32.73
2018-02-20T09:05:57.548Z,32.30
2018-02-20T09:08:58.882Z,32.97
2018-02-20T09:12:01.137Z,32.83
2018-02-20T09:15:09.319Z,32.50
2018-02-20T09:18:10.668Z,31.97
2018-02-20T09:21:11.979Z,35.47
2018-02-20T09:24:13.334Z,33.17
2018-02-20T09:27:14.679Z,34.17
2018-02-20T09:30:16.758Z,32.53
2018-02-20T09:33:18.100Z,34.57
2018-02-20T09:36:19.450Z,34.40
2018-02-20T09:39:20.759Z,49.33
2018-02-20T09:42:22.122Z,32.70
2018-02-20T09:45:23.446Z,31.07
2018-02-20T09:48:24.764Z,33.23
2018-02-20T09:51:26.827Z,32.60
2018-02-20T09:54:28.167Z,32.87
2018-02-20T09:57:29.522Z,33.90
2018-02-20T10:00:30.839Z,32.80
2018-02-20T10:03:32.139Z,32.40
2018-02-20T10:06:33.455Z,29.33
2018-02-20T10:09:34.767Z,28.33
2018-02-20T10:12:36.083Z,26.90
2018-02-20T10:15:37.388Z,28.20
2018-02-20T10:18:38.687Z,28.73
2018-02-20T10:21:40.750Z,27.30
2018-02-20T10:24:42.086Z,29.60
2018-02-20T10:27:43.419Z,27.50
2018-02-20T10:30:44.727Z,27.30
2018-02-20T10:33:46.055Z,27.43
2018-02-20T10:36:47.391Z,26.97
2018-02-20T10:39:48.717Z,25.03
2018-02-20T10:42:50.024Z,23.93
2018-02-20T10:45:52.082Z,23.57
2018-02-20T10:48:54.254Z,25.00
2018-02-20T10:51:55.599Z,25.63
2018-02-20T10:54:57.664Z,26.50
2018-02-20T10:57:58.983Z,27.07
2018-02-20T11:01:00.346Z,26.10
2018-02-20T11:04:01.682Z,23.07
2018-02-20T11:07:03.033Z,26.07
2018-02-20T11:10:05.134Z,24.93
2018-02-20T11:13:07.202Z,26.17
2018-02-20T11:16:08.534Z,25.60
2018-02-20T11:19:09.874Z,23.80
2018-02-20T11:22:11.176Z,24.27
2018-02-20T11:25:12.514Z,24.10
2018-02-20T11:28:13.847Z,24.73
2018-02-20T11:31:15.202Z,25.97
2018-02-20T11:34:17.247Z,25.97
2018-02-20T11:37:18.607Z,26.97
2018-02-20T11:40:19.916Z,24.77
2018-02-20T11:43:21.264Z,24.33
2018-02-20T11:46:22.592Z,25.17
2018-02-20T11:49:23.951Z,24.30
2018-02-20T11:52:25.299Z,23.00
2018-02-20T11:55:26.668Z,25.23
2018-02-20T11:58:28.777Z,25.60
2018-02-20T12:01:30.147Z,24.57
2018-02-20T12:04:32.201Z,24.60
2018-02-20T12:07:33.553Z,24.30
2018-02-20T12:10:34.898Z,25.37
2018-02-20T12:13:36.981Z,23.23
2018-02-20T12:16:38.326Z,23.30
2018-02-20T12:19:39.690Z,22.83
2018-02-20T12:22:41.054Z,23.13
2018-02-20T12:25:43.127Z,22.20
2018-02-20T12:28:44.460Z,24.40
2018-02-20T12:31:45.790Z,22.20
2018-02-20T12:34:47.126Z,23.00
2018-02-20T12:37:48.428Z,25.00
2018-02-20T12:40:49.789Z,25.40
2018-02-20T12:43:51.133Z,27.00
2018-02-20T12:46:52.471Z,27.13
2018-02-20T12:49:53.806Z,24.67
2018-02-20T12:52:55.154Z,25.80
2018-02-20T12:55:57.242Z,23.97
2018-02-20T12:58:58.567Z,21.90
2018-02-20T13:01:59.921Z,22.90
2018-02-20T13:05:02.029Z,24.50
2018-02-20T13:08:03.365Z,25.93
2018-02-20T13:11:04.714Z,24.53
2018-02-20T13:14:06.046Z,26.97
2018-02-20T13:17:07.366Z,26.60
2018-02-20T13:20:08.690Z,23.93
2018-02-20T13:23:10.039Z,24.03
2018-02-20T13:26:11.369Z,25.53
2018-02-20T13:29:12.683Z,24.57
2018-02-20T13:32:14.033Z,23.77
2018-02-20T13:35:16.183Z,24.90
2018-02-20T13:38:17.490Z,22.03
2018-02-20T13:41:18.815Z,22.80
2018-02-20T13:44:20.158Z,23.63
2018-02-20T13:47:21.471Z,24.03
2018-02-20T13:50:22.840Z,23.90
2018-02-20T13:53:24.936Z,26.37
2018-02-20T13:56:27.012Z,25.27
2018-02-20T13:59:28.370Z,24.83
2018-02-20T14:02:29.750Z,25.37
2018-02-20T14:05:31.111Z,27.43
2018-02-20T14:08:32.475Z,26.43
2018-02-20T14:11:33.807Z,31.43
2018-02-20T14:14:35.192Z,35.10
2018-02-20T14:17:36.502Z,32.40
2018-02-20T14:20:38.560Z,30.50
2018-02-20T14:23:39.868Z,31.50
2018-02-20T14:26:41.219Z,31.87
2018-02-20T14:29:43.323Z,30.13
2018-02-20T14:32:44.676Z,29.10
2018-02-20T14:35:45.975Z,31.00
2018-02-20T14:38:47.315Z,30.80
2018-02-20T14:41:48.630Z,29.70
2018-02-20T14:44:50.143Z,29.30
2018-02-20T14:47:51.453Z,29.47
2018-02-20T14:50:53.064Z,30.00
2018-02-20T14:53:54.398Z,33.30
2018-02-20T14:56:56.468Z,30.40
2018-02-20T14:59:57.839Z,31.23
2018-02-20T15:03:00.158Z,29.70
2018-02-20T15:06:01.492Z,29.97
2018-02-20T15:09:02.844Z,31.60
2018-02-20T15:12:04.900Z,31.40
2018-02-20T15:15:06.209Z,29.07
2018-02-20T15:18:07.520Z,30.60
2018-02-20T15:21:08.850Z,32.03
2018-02-20T15:24:10.487Z,33.73
2018-02-20T15:27:11.819Z,31.33
2018-02-20T15:30:13.103Z,31.57
2018-02-20T15:33:14.448Z,30.57
2018-02-20T15:36:15.756Z,33.70
2018-02-20T15:39:24.123Z,30.07
2018-02-20T15:42:25.440Z,31.40
2018-02-20T15:45:26.759Z,29.07
2018-02-20T15:48:28.802Z,27.40
2018-02-20T15:51:30.157Z,30.70
2018-02-20T15:54:31.489Z,30.50
2018-02-20T15:57:32.838Z,26.70
2018-02-20T16:00:34.907Z,28.00
2018-02-20T16:03:36.248Z,28.97
2018-02-20T16:06:37.587Z,25.13
2018-02-20T16:09:39.644Z,27.10
2018-02-20T16:12:40.994Z,27.97
2018-02-20T16:15:43.139Z,27.40
2018-02-20T16:18:44.469Z,26.00
2018-02-20T16:21:45.831Z,27.70
2018-02-20T16:24:47.920Z,25.53
2018-02-20T16:27:50.005Z,27.10
2018-02-20T16:30:51.363Z,25.33
2018-02-20T16:33:52.718Z,27.87
2018-02-20T16:36:54.051Z,26.63
2018-02-20T16:40:02.486Z,27.63
2018-02-20T16:43:03.858Z,29.10
2018-02-20T16:46:05.155Z,28.70
2018-02-20T16:49:06.464Z,27.43
2018-02-20T16:52:08.568Z,30.13
2018-02-20T16:55:09.910Z,30.03
2018-02-20T16:58:11.357Z,30.80
2018-02-20T17:01:12.831Z,27.13
2018-02-20T17:04:14.212Z,29.27
2018-02-20T17:07:15.579Z,26.20
2018-02-20T17:10:16.955Z,30.30
2018-02-20T17:13:18.413Z,30.47
2018-02-20T17:16:20.692Z,29.13
2018-02-20T17:19:22.060Z,28.00
2018-02-20T17:22:23.532Z,27.90
2018-02-20T17:25:24.893Z,28.00
2018-02-20T17:28:26.370Z,28.83
2018-02-20T17:31:27.716Z,30.80
2018-02-20T17:34:29.610Z,28.80
2018-02-20T17:37:31.447Z,31.13
2018-02-20T17:40:32.835Z,52.73
2018-02-20T17:43:34.620Z,29.00
2018-02-20T17:46:36.294Z,28.73
2018-02-20T17:49:37.770Z,29.07
2018-02-20T17:52:39.448Z,27.93
2018-02-20T17:55:41.875Z,30.10
2018-02-20T18:01:51.402Z,39.67
2018-02-20T18:04:53.219Z,29.63
2018-02-20T18:07:54.769Z,27.80
2018-02-20T18:10:56.358Z,29.77
2018-02-20T18:13:57.871Z,27.77
2018-02-20T18:16:59.531Z,28.87
2018-02-20T18:20:01.196Z,26.50
2018-02-20T18:23:02.882Z,28.90
2018-02-20T18:26:04.545Z,30.90
2018-02-20T18:29:05.906Z,30.70
2018-02-20T18:32:07.312Z,28.13
2018-02-20T18:35:09.123Z,31.53
2018-02-20T18:38:10.948Z,31.70
2018-02-20T18:41:12.296Z,28.80
2018-02-20T18:44:13.643Z,31.33
2018-02-20T18:47:15.136Z,29.30
2018-02-20T18:50:16.491Z,30.50
2018-02-20T18:53:17.835Z,30.03
2018-02-20T18:56:19.585Z,27.90
2018-02-20T18:59:20.960Z,29.20
2018-02-20T19:02:22.297Z,28.53
2018-02-20T19:05:24.409Z,29.10
2018-02-20T19:08:33.817Z,29.07
2018-02-20T19:11:35.226Z,27.97
2018-02-20T19:14:36.540Z,30.60
2018-02-20T19:17:38.171Z,30.47
2018-02-20T19:20:40.739Z,30.33
2018-02-20T19:23:42.888Z,28.97
2018-02-20T19:26:44.238Z,31.27
2018-02-20T19:29:45.643Z,33.00
2018-02-20T19:32:47.690Z,30.37
2018-02-20T19:35:49.036Z,28.70
2018-02-20T19:38:51.326Z,30.23
2018-02-20T19:41:52.675Z,32.77
2018-02-20T19:44:54.016Z,32.97
2018-02-20T19:47:55.680Z,30.67
2018-02-20T19:50:57.015Z,30.93
2018-02-20T19:53:58.369Z,33.37
2018-02-20T19:56:59.747Z,34.03
2018-02-20T20:00:01.836Z,33.03
2018-02-20T20:03:03.958Z,32.10
2018-02-20T20:06:05.318Z,32.83
2018-02-20T20:09:06.679Z,33.07
2018-02-20T20:12:08.029Z,35.40
2018-02-20T20:15:10.077Z,32.57
2018-02-20T20:18:12.286Z,34.70
2018-02-20T20:21:13.620Z,34.40
2018-02-20T20:24:14.944Z,33.20
2018-02-20T20:27:16.300Z,35.10
2018-02-20T20:33:25.824Z,33.63
2018-02-20T20:36:27.189Z,34.23
2018-02-20T20:39:29.299Z,36.60
2018-02-20T20:42:30.606Z,35.80
2018-02-20T20:45:31.953Z,35.67
2018-02-20T20:48:34.004Z,34.90
2018-02-20T20:51:35.777Z,34.93
2018-02-20T20:54:37.139Z,33.90
2018-02-20T20:57:38.471Z,33.50
2018-02-20T21:00:39.799Z,34.00
2018-02-20T21:03:41.088Z,34.67
2018-02-20T21:06:42.586Z,39.40
2018-02-20T21:09:44.163Z,33.67
2018-02-20T21:12:45.998Z,35.87
2018-02-20T21:15:47.328Z,35.93
2018-02-20T21:18:48.701Z,34.57
2018-02-20T21:21:50.002Z,36.50
2018-02-20T21:24:51.489Z,37.30
2018-02-20T21:27:52.776Z,38.97
2018-02-20T21:30:54.099Z,37.87
2018-02-20T21:33:56.188Z,38.10
2018-02-20T21:36:58.270Z,36.13
2018-02-20T21:39:59.664Z,37.73
2018-02-20T21:43:01.084Z,37.30
2018-02-20T21:46:02.401Z,34.47
2018-02-20T21:49:03.749Z,39.03
2018-02-20T21:52:05.066Z,36.23
2018-02-20T21:55:06.488Z,38.87
2018-02-20T21:58:08.580Z,38.90
2018-02-20T22:01:10.622Z,38.23
2018-02-20T22:04:11.937Z,39.00
2018-02-20T22:07:13.272Z,38.77
2018-02-20T22:10:14.647Z,36.87
2018-02-20T22:13:15.963Z,39.23
2018-02-20T22:20:22.281Z,37.00
2018-02-20T22:23:24.131Z,39.57
2018-02-20T22:26:25.589Z,40.77
2018-02-20T22:29:26.923Z,39.87
2018-02-20T22:32:28.373Z,41.97
2018-02-20T22:35:29.774Z,39.17
2018-02-20T22:38:31.926Z,38.90
2018-02-20T22:41:33.401Z,40.70
2018-02-20T22:44:34.731Z,40.00
2018-02-20T22:47:36.875Z,40.47
2018-02-20T22:50:38.210Z,40.93
2018-02-20T22:53:40.291Z,39.73
2018-02-20T22:56:41.625Z,40.53
2018-02-20T22:59:44.364Z,39.53
2018-02-20T23:02:49.226Z,38.80
2018-02-20T23:05:50.666Z,40.00
2018-02-20T23:08:52.017Z,41.50
2018-02-20T23:11:53.830Z,40.90
2018-02-20T23:14:55.960Z,42.10
2018-02-20T23:17:57.343Z,40.77
2018-02-20T23:20:59.266Z,41.07
2018-02-20T23:24:00.816Z,42.47
2018-02-20T23:27:02.164Z,38.90
2018-02-20T23:30:03.509Z,40.93
2018-02-20T23:33:05.403Z,42.53
2018-02-20T23:36:06.741Z,44.40
2018-02-20T23:39:08.909Z,41.57
2018-02-20T23:42:12.434Z,40.90
2018-02-20T23:45:14.529Z,40.27
2018-02-20T23:48:15.855Z,43.00
2018-02-20T23:51:23.652Z,44.23
2018-02-20T23:54:27.153Z,42.67
2018-02-20T23:57:28.596Z,41.43
